createdAt,value
2018-09-08T00:00:52.211Z,58.14
2018-09-08T00:03:21.901Z,59.03
2018-09-08T00:05:51.951Z,59.20
2018-09-08T00:08:21.789Z,59.48
2018-09-08T00:10:51.874Z,59.67
2018-09-08T00:13:21.711Z,59.58
2018-09-08T00:15:56.489Z,59.49
2018-09-08T00:18:31.043Z,59.61
2018-09-08T00:21:05.819Z,59.60
2018-09-08T00:23:40.577Z,59.65
2018-09-08T00:26:15.134Z,59.86
2018-09-08T00:28:50.549Z,59.61
2018-09-08T00:31:21.366Z,59.60
2018-09-08T00:33:50.882Z,60.06
2018-09-08T00:36:20.426Z,60.13
2018-09-08T00:38:50.430Z,59.81
2018-09-08T00:41:20.143Z,60.07
2018-09-08T00:43:50.124Z,60.51
2018-09-08T00:46:20.281Z,60.42
2018-09-08T00:48:49.730Z,60.45
2018-09-08T00:51:19.516Z,60.59
2018-09-08T00:53:49.340Z,60.21
2018-09-08T00:56:19.067Z,61.00
2018-09-08T00:58:53.997Z,61.05
2018-09-08T01:01:23.574Z,61.66
2018-09-08T01:03:53.211Z,61.48
2018-09-08T01:06:22.779Z,62.15
2018-09-08T01:08:52.873Z,61.30
2018-09-08T01:11:22.423Z,61.43
2018-09-08T01:13:52.281Z,61.81
2018-09-08T01:16:22.588Z,61.84
2018-09-08T01:18:52.619Z,62.04
2018-09-08T01:21:22.201Z,62.51
2018-09-08T01:23:54.421Z,62.46
2018-09-08T01:26:24.525Z,62.38
2018-09-08T01:28:54.133Z,62.54
2018-09-08T01:31:23.714Z,62.41
2018-09-08T01:33:53.179Z,62.94
2018-09-08T01:36:22.734Z,62.68
2018-09-08T01:38:52.299Z,62.82
2018-09-08T01:41:22.074Z,62.60
2018-09-08T01:43:51.786Z,62.95
2018-09-08T01:46:21.596Z,63.23
2018-09-08T01:48:51.117Z,62.54
2018-09-08T01:51:20.914Z,62.82
2018-09-08T01:53:50.701Z,62.90
2018-09-08T01:56:20.742Z,62.50
2018-09-08T01:58:51.290Z,62.65
2018-09-08T02:01:21.051Z,62.79
2018-09-08T02:03:50.638Z,63.55
2018-09-08T02:06:20.145Z,63.27
2018-09-08T02:08:50.208Z,63.90
2018-09-08T02:11:20.118Z,63.46
2018-09-08T02:13:49.746Z,63.65
2018-09-08T02:16:19.628Z,63.75
2018-09-08T02:18:49.153Z,63.61
2018-09-08T02:21:18.757Z,63.86
2018-09-08T02:23:48.588Z,64.13
2018-09-08T02:26:18.226Z,64.18
2018-09-08T02:28:47.877Z,64.19
2018-09-08T02:31:18.003Z,64.39
2018-09-08T02:33:47.417Z,64.73
2018-09-08T02:36:16.919Z,64.81
2018-09-08T02:38:46.575Z,64.84
2018-09-08T02:41:17.429Z,64.51
2018-09-08T02:43:46.875Z,64.59
2018-09-08T02:46:16.849Z,64.17
2018-09-08T02:48:46.398Z,64.43
2018-09-08T02:51:14.565Z,65.01
2018-09-08T02:53:43.070Z,65.34
2018-09-08T02:56:11.331Z,64.92
2018-09-08T02:58:39.432Z,65.25
2018-09-08T03:01:08.281Z,65.43
2018-09-08T03:03:36.420Z,65.60
2018-09-08T03:06:04.551Z,65.92
2018-09-08T03:08:32.766Z,65.54
2018-09-08T03:11:00.953Z,65.72
2018-09-08T03:13:29.079Z,65.62
2018-09-08T03:15:57.198Z,66.14
2018-09-08T03:18:25.303Z,65.52
2018-09-08T03:20:53.658Z,65.75
2018-09-08T03:23:21.873Z,66.03
2018-09-08T03:25:50.001Z,66.05
2018-09-08T03:28:18.138Z,66.34
2018-09-08T03:30:46.476Z,66.68
2018-09-08T03:33:14.575Z,66.29
2018-09-08T03:35:42.773Z,67.19
2018-09-08T03:38:10.932Z,66.73
2018-09-08T03:40:38.983Z,66.96
2018-09-08T03:43:07.326Z,66.96
2018-09-08T03:45:35.452Z,67.25
2018-09-08T03:48:03.598Z,67.45
2018-09-08T03:50:32.012Z,67.47
2018-09-08T03:53:00.176Z,67.91
2018-09-08T03:55:28.320Z,68.04
2018-09-08T03:57:57.627Z,67.90
2018-09-08T04:00:25.821Z,67.53
2018-09-08T04:02:56.146Z,67.49
2018-09-08T04:05:25.919Z,67.42
2018-09-08T04:07:55.390Z,67.81
2018-09-08T04:10:24.967Z,67.65
2018-09-08T04:12:54.837Z,67.79
2018-09-08T04:15:24.310Z,68.18
2018-09-08T04:17:53.936Z,67.78
2018-09-08T04:20:23.653Z,68.19
2018-09-08T04:22:53.205Z,68.42
2018-09-08T04:25:22.826Z,68.24
2018-09-08T04:27:52.819Z,68.77
2018-09-08T04:30:22.452Z,68.71
2018-09-08T04:32:52.050Z,68.76
2018-09-08T04:35:22.955Z,68.29
2018-09-08T04:37:52.535Z,68.16
2018-09-08T04:40:22.214Z,68.58
2018-09-08T04:42:52.177Z,67.77
2018-09-08T04:45:21.625Z,68.06
2018-09-08T04:47:51.250Z,68.13
2018-09-08T04:50:21.687Z,67.28
2018-09-08T04:52:51.269Z,67.54
2018-09-08T04:55:21.194Z,67.77
2018-09-08T04:57:51.546Z,68.15
2018-09-08T05:00:21.419Z,68.02
2018-09-08T05:02:50.820Z,68.27
2018-09-08T05:05:20.499Z,68.34
2018-09-08T05:07:49.860Z,67.88
2018-09-08T05:10:19.316Z,68.36
2018-09-08T05:12:48.900Z,68.21
2018-09-08T05:15:18.383Z,68.36
2018-09-08T05:17:48.178Z,67.66
2018-09-08T05:20:17.943Z,67.88
2018-09-08T05:22:47.599Z,67.74
2018-09-08T05:25:17.412Z,67.77
2018-09-08T05:27:47.008Z,67.72
2018-09-08T05:30:17.064Z,67.74
2018-09-08T05:32:46.870Z,67.62
2018-09-08T05:35:16.689Z,67.54
2018-09-08T05:37:46.397Z,67.30
2018-09-08T05:40:16.097Z,68.05
2018-09-08T05:42:46.342Z,67.69
2018-09-08T05:45:16.112Z,66.89
2018-09-08T05:47:45.952Z,66.72
2018-09-08T05:50:15.575Z,66.84
2018-09-08T05:52:45.267Z,66.67
2018-09-08T05:55:14.664Z,66.41
2018-09-08T05:57:44.399Z,66.05
2018-09-08T06:00:14.005Z,65.84
2018-09-08T06:02:43.645Z,65.74
2018-09-08T06:05:13.555Z,64.59
2018-09-08T06:07:43.213Z,64.75
2018-09-08T06:10:12.976Z,64.30
2018-09-08T06:12:42.862Z,64.22
2018-09-08T06:15:12.241Z,64.03
2018-09-08T06:17:41.966Z,64.24
2018-09-08T06:20:11.597Z,64.07
2018-09-08T06:22:41.414Z,63.77
2018-09-08T06:25:10.898Z,63.45
2018-09-08T06:27:40.409Z,62.76
2018-09-08T06:30:09.896Z,62.88
2018-09-08T06:32:39.598Z,62.61
2018-09-08T06:35:10.000Z,62.37
2018-09-08T06:37:39.647Z,62.00
2018-09-08T06:40:09.152Z,61.76
2018-09-08T06:42:39.257Z,61.16
2018-09-08T06:45:09.112Z,61.46
2018-09-08T06:47:38.890Z,60.45
2018-09-08T06:50:08.764Z,59.92
2018-09-08T06:52:38.336Z,59.80
2018-09-08T06:55:07.836Z,60.50
2018-09-08T06:57:37.473Z,59.50
2018-09-08T07:00:07.808Z,58.95
2018-09-08T07:02:37.318Z,59.78
2018-09-08T07:05:07.371Z,59.56
2018-09-08T07:07:36.953Z,59.29
2018-09-08T07:10:07.212Z,59.42
2018-09-08T07:12:37.189Z,57.70
2018-09-08T07:15:07.382Z,56.89
2018-09-08T07:17:37.149Z,57.25
2018-09-08T07:20:07.527Z,56.57
2018-09-08T07:22:37.114Z,55.40
2018-09-08T07:25:07.426Z,56.39
2018-09-08T07:27:36.800Z,56.91
2018-09-08T07:30:06.335Z,56.99
2018-09-08T07:32:36.098Z,56.25
2018-09-08T07:35:06.080Z,55.95
2018-09-08T07:37:35.471Z,55.32
2018-09-08T07:40:05.174Z,54.36
2018-09-08T07:42:35.331Z,53.54
2018-09-08T07:45:05.031Z,54.70
2018-09-08T07:47:34.725Z,54.76
2018-09-08T07:50:04.461Z,53.55
2018-09-08T07:52:33.962Z,53.68
2018-09-08T07:55:03.536Z,52.56
2018-09-08T07:57:33.495Z,52.50
2018-09-08T08:00:03.190Z,52.30
2018-09-08T08:02:32.592Z,52.42
2018-09-08T08:05:02.684Z,52.20
2018-09-08T08:07:32.097Z,52.28
2018-09-08T08:10:01.708Z,52.70
2018-09-08T08:12:31.461Z,52.28
2018-09-08T08:15:01.223Z,51.42
2018-09-08T08:17:30.643Z,51.84
2018-09-08T08:20:00.169Z,51.60
2018-09-08T08:22:29.670Z,52.03
2018-09-08T08:24:59.206Z,51.49
2018-09-08T08:27:29.210Z,51.29
2018-09-08T08:29:58.874Z,50.43
2018-09-08T08:32:28.745Z,51.22
2018-09-08T08:34:58.630Z,50.34
2018-09-08T08:37:28.125Z,49.84
2018-09-08T08:39:57.639Z,49.43
2018-09-08T08:42:27.965Z,49.65
2018-09-08T08:44:57.301Z,49.59
2018-09-08T08:47:26.825Z,49.75
2018-09-08T08:50:07.853Z,48.74
2018-09-08T08:52:48.825Z,48.22
2018-09-08T08:55:18.673Z,48.95
2018-09-08T08:57:48.325Z,48.74
2018-09-08T09:00:17.925Z,49.02
2018-09-08T09:02:48.032Z,48.66
2018-09-08T09:05:17.766Z,48.31
2018-09-08T09:07:47.390Z,47.65
2018-09-08T09:10:17.238Z,47.46
2018-09-08T09:12:46.772Z,46.92
2018-09-08T09:15:16.637Z,48.10
2018-09-08T09:17:46.469Z,47.62
2018-09-08T09:20:26.960Z,46.94
2018-09-08T09:23:08.002Z,46.76
2018-09-08T09:25:37.481Z,45.23
2018-09-08T09:28:07.088Z,43.99
2018-09-08T09:30:36.644Z,44.66
2018-09-08T09:33:06.093Z,42.72
2018-09-08T09:35:35.756Z,43.58
2018-09-08T09:38:06.045Z,43.30
2018-09-08T09:40:35.550Z,43.73
2018-09-08T09:43:05.148Z,44.19
2018-09-08T09:45:35.339Z,44.19
2018-09-08T09:48:05.006Z,44.78
2018-09-08T09:50:34.485Z,44.58
2018-09-08T09:53:04.882Z,45.00
2018-09-08T09:55:34.577Z,43.35
2018-09-08T09:58:04.121Z,43.84
2018-09-08T10:00:38.695Z,43.81
2018-09-08T10:03:08.463Z,43.08
2018-09-08T10:05:37.881Z,42.16
2018-09-08T10:08:07.259Z,43.04
2018-09-08T10:10:36.952Z,43.85
2018-09-08T10:13:06.789Z,43.54
2018-09-08T10:15:36.850Z,43.05
2018-09-08T10:18:06.828Z,44.54
2018-09-08T10:20:36.341Z,44.45
2018-09-08T10:23:06.958Z,44.41
2018-09-08T10:25:36.489Z,42.40
2018-09-08T10:28:06.203Z,43.28
2018-09-08T10:30:36.286Z,41.06
2018-09-08T10:33:05.923Z,40.18
2018-09-08T10:35:35.477Z,40.02
2018-09-08T10:38:05.553Z,40.98
2018-09-08T10:40:35.257Z,40.60
2018-09-08T10:43:04.844Z,39.99
2018-09-08T10:45:35.124Z,40.70
2018-09-08T10:48:04.648Z,41.72
2018-09-08T10:50:34.934Z,42.04
2018-09-08T10:53:04.933Z,41.68
2018-09-08T10:55:34.405Z,42.07
2018-09-08T10:58:04.203Z,44.07
2018-09-08T11:00:34.266Z,41.00
2018-09-08T11:03:03.839Z,38.88
2018-09-08T11:05:33.593Z,37.59
2018-09-08T11:08:03.765Z,38.14
2018-09-08T11:10:33.222Z,37.98
2018-09-08T11:13:03.032Z,38.58
2018-09-08T11:15:32.823Z,38.34
2018-09-08T11:18:02.557Z,38.92
2018-09-08T11:20:32.365Z,40.12
2018-09-08T11:23:03.118Z,40.57
2018-09-08T11:25:32.712Z,40.43
2018-09-08T11:28:02.209Z,40.38
2018-09-08T11:30:32.581Z,40.80
2018-09-08T11:33:02.042Z,40.94
2018-09-08T11:35:31.832Z,41.53
2018-09-08T11:38:01.327Z,40.77
2018-09-08T11:40:30.987Z,40.16
2018-09-08T11:43:00.441Z,39.86
2018-09-08T11:45:30.221Z,40.22
2018-09-08T11:47:59.903Z,42.02
2018-09-08T11:50:29.361Z,42.81
2018-09-08T11:52:59.315Z,43.71
2018-09-08T11:55:29.061Z,43.71
2018-09-08T11:57:58.770Z,43.63
2018-09-08T12:00:28.418Z,44.17
2018-09-08T12:02:58.122Z,44.77
2018-09-08T12:05:27.579Z,44.76
2018-09-08T12:07:57.541Z,44.12
2018-09-08T12:10:27.002Z,44.54
2018-09-08T12:12:56.406Z,45.09
2018-09-08T12:15:26.626Z,45.00
2018-09-08T12:17:55.970Z,46.23
2018-09-08T12:20:25.525Z,46.24
2018-09-08T12:22:54.922Z,47.92
2018-09-08T12:25:24.702Z,50.00
2018-09-08T12:27:54.191Z,49.57
2018-09-08T12:30:24.401Z,49.95
2018-09-08T12:32:53.688Z,49.76
2018-09-08T12:35:23.239Z,50.01
2018-09-08T12:37:53.148Z,51.66
2018-09-08T12:40:22.662Z,50.67
2018-09-08T12:42:52.206Z,49.16
2018-09-08T12:45:22.192Z,47.98
2018-09-08T12:47:51.524Z,47.58
2018-09-08T12:50:21.022Z,46.94
2018-09-08T12:52:50.807Z,43.58
2018-09-08T12:55:20.417Z,43.27
2018-09-08T12:57:50.075Z,41.88
2018-09-08T13:00:19.603Z,39.68
2018-09-08T13:02:49.290Z,39.89
2018-09-08T13:05:18.850Z,38.24
2018-09-08T13:07:48.721Z,37.82
2018-09-08T13:10:18.529Z,35.88
2018-09-08T13:12:48.337Z,34.87
2018-09-08T13:15:18.473Z,34.65
2018-09-08T13:17:47.959Z,35.48
2018-09-08T13:20:17.468Z,35.46
2018-09-08T13:22:47.386Z,36.87
2018-09-08T13:25:16.936Z,38.32
2018-09-08T13:27:46.715Z,38.80
2018-09-08T13:30:17.562Z,40.48
2018-09-08T13:32:47.250Z,42.40
2018-09-08T13:35:16.868Z,43.20
2018-09-08T13:37:46.791Z,42.38
2018-09-08T13:40:16.283Z,41.57
2018-09-08T13:42:45.559Z,39.71
2018-09-08T13:45:15.086Z,37.77
2018-09-08T13:47:44.859Z,38.35
2018-09-08T13:50:14.822Z,38.51
2018-09-08T13:52:44.644Z,38.11
2018-09-08T13:55:14.313Z,37.75
2018-09-08T13:57:43.944Z,37.62
2018-09-08T14:00:13.844Z,37.28
2018-09-08T14:02:43.497Z,35.85
2018-09-08T14:05:12.868Z,36.39
2018-09-08T14:07:48.096Z,35.05
2018-09-08T14:10:17.812Z,35.74
2018-09-08T14:12:47.233Z,34.82
2018-09-08T14:15:17.144Z,34.67
2018-09-08T14:17:46.542Z,35.35
2018-09-08T14:20:16.227Z,33.42
2018-09-08T14:22:46.095Z,34.34
2018-09-08T14:25:15.787Z,33.97
2018-09-08T14:27:45.557Z,33.09
2018-09-08T14:30:15.411Z,34.53
2018-09-08T14:32:45.135Z,33.81
2018-09-08T14:35:14.734Z,34.23
2018-09-08T14:37:44.761Z,35.42
2018-09-08T14:40:14.331Z,35.44
2018-09-08T14:42:43.887Z,36.30
2018-09-08T14:45:13.748Z,37.62
2018-09-08T14:47:43.400Z,37.44
2018-09-08T14:50:12.796Z,37.62
2018-09-08T14:52:42.717Z,38.04
2018-09-08T14:55:12.401Z,38.28
2018-09-08T14:57:41.812Z,39.11
2018-09-08T15:00:11.753Z,40.15
2018-09-08T15:02:41.449Z,38.93
2018-09-08T15:05:11.056Z,38.99
2018-09-08T15:07:40.997Z,39.31
2018-09-08T15:10:10.675Z,39.19
2018-09-08T15:12:40.087Z,39.73
2018-09-08T15:15:09.879Z,40.15
2018-09-08T15:17:39.320Z,40.80
2018-09-08T15:20:09.198Z,41.55
2018-09-08T15:22:39.614Z,42.63
2018-09-08T15:25:09.543Z,43.05
2018-09-08T15:27:39.161Z,42.59
2018-09-08T15:30:08.810Z,41.89
2018-09-08T15:32:38.412Z,41.04
2018-09-08T15:35:08.103Z,40.99
2018-09-08T15:37:38.208Z,41.18
2018-09-08T15:40:07.978Z,39.57
2018-09-08T15:42:37.529Z,39.69
2018-09-08T15:45:07.683Z,40.02
2018-09-08T15:47:37.524Z,40.42
2018-09-08T15:50:07.385Z,43.53
2018-09-08T15:52:36.847Z,44.94
2018-09-08T15:55:06.575Z,46.25
2018-09-08T15:57:36.171Z,47.06
2018-09-08T16:00:06.335Z,47.79
2018-09-08T16:02:35.738Z,48.51
2018-09-08T16:05:05.637Z,48.54
2018-09-08T16:07:35.684Z,48.99
2018-09-08T16:10:05.265Z,48.96
2018-09-08T16:12:34.883Z,49.17
2018-09-08T16:15:05.229Z,48.87
2018-09-08T16:17:34.721Z,49.30
2018-09-08T16:20:04.577Z,49.09
2018-09-08T16:22:34.469Z,49.10
2018-09-08T16:25:04.350Z,49.35
2018-09-08T16:27:34.287Z,49.69
2018-09-08T16:30:04.113Z,49.48
2018-09-08T16:32:33.825Z,49.88
2018-09-08T16:35:03.187Z,49.49
2018-09-08T16:37:33.147Z,49.85
2018-09-08T16:40:02.743Z,50.13
2018-09-08T16:42:32.233Z,50.30
2018-09-08T16:45:02.079Z,50.52
2018-09-08T16:47:31.475Z,50.39
2018-09-08T16:50:01.371Z,50.69
2018-09-08T16:52:31.510Z,50.38
2018-09-08T16:55:01.190Z,50.13
2018-09-08T16:57:31.022Z,49.53
2018-09-08T17:00:00.856Z,50.07
2018-09-08T17:02:30.430Z,49.63
2018-09-08T17:05:00.474Z,49.40
2018-09-08T17:07:30.396Z,49.47
2018-09-08T17:09:59.956Z,49.18
2018-09-08T17:12:29.688Z,49.15
2018-09-08T17:15:00.035Z,49.17
2018-09-08T17:17:29.411Z,49.51
2018-09-08T17:19:59.025Z,50.06
2018-09-08T17:22:28.939Z,50.27
2018-09-08T17:24:58.638Z,50.98
2018-09-08T17:27:28.457Z,51.36
2018-09-08T17:29:58.302Z,51.37
2018-09-08T17:32:27.691Z,51.86
2018-09-08T17:34:57.079Z,51.82
2018-09-08T17:37:27.008Z,52.20
2018-09-08T17:39:56.470Z,52.13
2018-09-08T17:42:26.133Z,52.08
2018-09-08T17:44:55.884Z,52.71
2018-09-08T17:47:25.534Z,52.86
2018-09-08T17:49:54.994Z,52.83
2018-09-08T17:52:24.985Z,53.05
2018-09-08T17:54:54.336Z,53.19
2018-09-08T17:57:24.320Z,53.10
2018-09-08T17:59:53.892Z,53.39
2018-09-08T18:02:23.512Z,53.87
2018-09-08T18:04:52.918Z,53.80
2018-09-08T18:07:22.955Z,53.94
2018-09-08T18:09:52.827Z,54.18
2018-09-08T18:12:22.402Z,54.50
2018-09-08T18:14:52.674Z,54.35
2018-09-08T18:17:22.123Z,54.34
2018-09-08T18:19:51.771Z,54.18
2018-09-08T18:22:22.659Z,54.30
2018-09-08T18:24:52.337Z,54.15
2018-09-08T18:27:21.917Z,54.18
2018-09-08T18:29:51.958Z,53.93
2018-09-08T18:32:21.640Z,54.13
2018-09-08T18:34:51.171Z,54.22
2018-09-08T18:37:20.720Z,54.42
2018-09-08T18:39:50.278Z,54.51
2018-09-08T18:42:20.010Z,54.34
2018-09-08T18:44:49.885Z,54.53
2018-09-08T18:47:19.474Z,54.94
2018-09-08T18:49:49.036Z,55.08
2018-09-08T18:52:18.882Z,55.54
2018-09-08T18:54:48.449Z,55.65
2018-09-08T18:57:18.316Z,55.78
2018-09-08T18:59:48.419Z,56.08
2018-09-08T19:02:17.989Z,56.34
2018-09-08T19:04:47.855Z,56.47
2018-09-08T19:07:17.843Z,56.78
2018-09-08T19:09:55.350Z,56.98
2018-09-08T19:12:25.415Z,57.22
2018-09-08T19:15:01.252Z,57.32
2018-09-08T19:17:31.527Z,57.86
2018-09-08T19:20:06.284Z,57.93
2018-09-08T19:22:36.078Z,58.08
2018-09-08T19:25:05.706Z,58.29
2018-09-08T19:27:35.377Z,58.38
2018-09-08T19:30:05.667Z,58.62
2018-09-08T19:32:35.104Z,58.44
2018-09-08T19:35:09.645Z,58.88
2018-09-08T19:37:38.991Z,59.13
2018-09-08T19:40:14.081Z,59.45
2018-09-08T19:42:43.491Z,59.69
2018-09-08T19:45:13.229Z,59.92
2018-09-08T19:47:48.000Z,60.20
2018-09-08T19:50:17.714Z,60.22
2018-09-08T19:52:52.816Z,60.09
2018-09-08T19:55:22.573Z,60.27
2018-09-08T19:57:57.423Z,60.02
2018-09-08T20:00:26.769Z,60.23
2018-09-08T20:02:59.506Z,60.40
2018-09-08T20:05:29.211Z,60.72
2018-09-08T20:07:58.715Z,60.70
2018-09-08T20:10:28.361Z,61.05
2018-09-08T20:12:57.726Z,60.96
2018-09-08T20:15:27.337Z,61.17
2018-09-08T20:17:56.753Z,61.20
2018-09-08T20:20:26.528Z,61.22
2018-09-08T20:22:55.946Z,61.36
2018-09-08T20:25:25.671Z,61.51
2018-09-08T20:27:57.259Z,61.73
2018-09-08T20:30:26.801Z,62.22
2018-09-08T20:32:56.166Z,62.26
2018-09-08T20:35:26.243Z,62.39
2018-09-08T20:37:59.296Z,62.52
2018-09-08T20:40:28.739Z,62.39
2018-09-08T20:42:58.244Z,62.31
2018-09-08T20:45:28.470Z,62.59
2018-09-08T20:47:58.083Z,62.67
2018-09-08T20:50:27.682Z,62.79
2018-09-08T20:52:57.318Z,62.54
2018-09-08T20:55:26.809Z,62.63
2018-09-08T20:57:56.244Z,62.59
2018-09-08T21:00:25.883Z,62.73
2018-09-08T21:02:55.368Z,62.56
2018-09-08T21:05:25.131Z,62.80
2018-09-08T21:07:54.863Z,62.68
2018-09-08T21:10:24.446Z,63.00
2018-09-08T21:12:53.750Z,63.05
2018-09-08T21:15:24.115Z,63.23
2018-09-08T21:17:53.408Z,63.45
2018-09-08T21:20:22.977Z,63.19
2018-09-08T21:22:52.978Z,63.41
2018-09-08T21:25:22.530Z,63.19
2018-09-08T21:27:52.131Z,63.06
2018-09-08T21:30:21.861Z,63.39
2018-09-08T21:32:51.462Z,63.02
2018-09-08T21:35:21.042Z,63.01
2018-09-08T21:37:51.083Z,63.01
2018-09-08T21:40:20.475Z,63.07
2018-09-08T21:42:50.069Z,63.55
2018-09-08T21:45:20.008Z,62.83
2018-09-08T21:47:49.715Z,63.09
2018-09-08T21:50:19.298Z,63.04
2018-09-08T21:52:49.244Z,62.91
2018-09-08T21:55:18.836Z,62.99
2018-09-08T22:15:10.986Z,63.36
2018-09-08T22:17:40.451Z,63.30
2018-09-08T22:20:10.428Z,63.46
2018-09-08T22:22:40.046Z,63.55
2018-09-08T22:25:09.526Z,63.48
2018-09-08T22:45:01.304Z,63.29
2018-09-08T22:47:31.194Z,63.28
2018-09-08T23:07:22.759Z,63.27
2018-09-08T23:09:52.599Z,63.03
2018-09-08T23:12:22.413Z,63.24
2018-09-08T23:14:52.408Z,62.67
2018-09-08T23:17:21.887Z,62.65
2018-09-08T23:19:51.161Z,62.71
2018-09-08T23:22:21.033Z,62.85
2018-09-08T23:24:50.487Z,62.72
2018-09-08T23:27:20.403Z,62.67
2018-09-08T23:29:50.355Z,62.64
2018-09-08T23:32:20.022Z,62.61
2018-09-08T23:34:49.749Z,62.47
2018-09-08T23:37:19.889Z,62.55
2018-09-08T23:39:49.388Z,62.50
2018-09-08T23:42:19.273Z,62.27
2018-09-08T23:44:48.909Z,62.29
2018-09-08T23:47:18.633Z,62.25
2018-09-08T23:49:48.336Z,62.11
2018-09-08T23:52:17.949Z,62.35
2018-09-08T23:54:47.734Z,62.04
2018-09-08T23:57:17.145Z,62.08
2018-09-08T23:59:46.687Z,61.89
